Time;durP1;ratioP1;P1;durP2;ratioP2;P2;SDS_P1;SDS_P2;PMS_P1;PMS_P2;Temp;Humidity;BMP_temperature;BMP_pressure;BME280_temperature;BME280_humidity;BME280_pressure;Samples;Min_cycle;Max_cycle;Signal;HPM_P1;HPM_P2
2021/01/31 00:01:49;;;;;;;2.30;1.30;;;23.10;34.40;;;;;;5033464;28;20962;-61
2021/01/31 00:04:14;;;;;;;2.00;1.40;;;23.00;34.20;;;;;;5051083;28;20401;-61
2021/01/31 00:06:40;;;;;;;2.23;1.60;;;23.00;34.20;;;;;;5050599;28;20869;-61
2021/01/31 00:09:06;;;;;;;3.00;1.42;;;23.00;34.20;;;;;;5050191;28;20409;-61
2021/01/31 00:11:31;;;;;;;2.60;1.23;;;23.00;34.20;;;;;;5051285;28;20394;-61
2021/01/31 00:13:57;;;;;;;2.25;1.50;;;23.00;34.20;;;;;;5051306;28;20389;-61
2021/01/31 00:16:22;;;;;;;2.23;1.50;;;23.00;34.20;;;;;;5051051;28;20386;-61
2021/01/31 00:18:48;;;;;;;2.10;1.40;;;23.00;34.20;;;;;;5050272;28;20437;-61
2021/01/31 00:21:14;;;;;;;2.70;1.60;;;23.00;34.10;;;;;;5052129;28;20393;-62
2021/01/31 00:23:39;;;;;;;2.30;1.30;;;23.00;34.20;;;;;;5051142;28;20391;-61
2021/01/31 00:26:05;;;;;;;2.17;1.42;;;22.90;34.10;;;;;;5051170;28;20394;-61
2021/01/31 00:28:30;;;;;;;2.07;1.40;;;22.90;34.10;;;;;;5050240;28;20401;-61
2021/01/31 00:30:57;;;;;;;2.03;1.40;;;22.90;34.10;;;;;;5052405;28;20480;-61
2021/01/31 00:33:25;;;;;;;2.10;1.40;;;22.90;34.10;;;;;;5055196;28;20524;-61
2021/01/31 00:35:52;;;;;;;2.23;1.30;;;23.00;34.00;;;;;;5055019;28;20459;-61
2021/01/31 00:38:20;;;;;;;2.17;1.35;;;23.00;33.90;;;;;;5055022;28;20908;-61
2021/01/31 00:40:46;;;;;;;2.80;1.30;;;22.90;33.90;;;;;;5054799;28;20480;-61
2021/01/31 00:43:13;;;;;;;2.00;1.30;;;23.00;33.90;;;;;;5054534;28;20405;-61
2021/01/31 00:45:39;;;;;;;2.10;1.30;;;23.00;33.80;;;;;;5054791;28;20385;-61
2021/01/31 00:48:05;;;;;;;1.80;1.30;;;23.00;33.70;;;;;;5054942;28;20444;-61
2021/01/31 00:50:35;;;;;;;2.10;1.40;;;23.00;33.70;;;;;;5054311;28;20844;-61
2021/01/31 00:53:02;;;;;;;1.77;1.20;;;23.00;33.70;;;;;;5063133;28;20455;-61
2021/01/31 00:55:28;;;;;;;2.03;1.30;;;23.00;33.70;;;;;;5054697;28;20374;-61
2021/01/31 00:57:54;;;;;;;1.80;1.20;;;22.90;33.70;;;;;;5054155;28;20436;-61
2021/01/31 01:00:26;;;;;;;2.37;1.30;;;22.90;33.70;;;;;;5054695;28;20401;-60
2021/01/31 01:02:52;;;;;;;1.88;1.20;;;22.80;33.80;;;;;;5055026;28;20374;-61
2021/01/31 01:05:21;;;;;;;2.00;1.30;;;22.80;33.80;;;;;;5054379;28;20490;-61
2021/01/31 01:07:47;;;;;;;2.20;1.50;;;22.90;33.80;;;;;;5054438;28;20431;-61
2021/01/31 01:10:16;;;;;;;2.03;1.40;;;22.80;33.70;;;;;;5054382;28;20386;-61
2021/01/31 01:12:42;;;;;;;2.25;1.48;;;22.80;33.70;;;;;;5054047;28;20748;-61
2021/01/31 01:15:10;;;;;;;2.03;1.40;;;22.80;33.70;;;;;;5054410;28;20390;-61
2021/01/31 01:17:35;;;;;;;2.03;1.38;;;22.80;33.60;;;;;;5054395;28;20382;-61
2021/01/31 01:20:01;;;;;;;2.05;1.30;;;22.80;33.70;;;;;;5054313;28;20516;-61
2021/01/31 01:22:27;;;;;;;1.88;1.30;;;22.80;33.60;;;;;;5055171;28;20394;-61
2021/01/31 01:24:52;;;;;;;2.20;1.50;;;22.80;33.60;;;;;;5053650;28;20408;-61
2021/01/31 01:27:20;;;;;;;2.57;1.60;;;22.80;33.50;;;;;;5054703;28;20901;-61
2021/01/31 01:29:46;;;;;;;2.22;1.60;;;22.80;33.50;;;;;;5054116;28;20405;-61
2021/01/31 01:32:12;;;;;;;2.20;1.60;;;22.80;33.40;;;;;;5054013;28;20393;-61
2021/01/31 01:34:37;;;;;;;1.95;1.40;;;22.80;33.40;;;;;;5053572;28;20393;-61
2021/01/31 01:37:03;;;;;;;2.10;1.40;;;22.80;33.30;;;;;;5054034;28;20715;-61
2021/01/31 01:39:29;;;;;;;2.13;1.40;;;22.80;33.30;;;;;;5053839;28;20432;-61
2021/01/31 01:41:54;;;;;;;2.28;1.33;;;22.80;33.30;;;;;;5052979;28;20389;-61
2021/01/31 01:44:20;;;;;;;1.80;1.27;;;22.80;33.30;;;;;;5053711;28;20771;-61
2021/01/31 01:46:50;;;;;;;1.85;1.10;;;22.80;33.30;;;;;;5053281;28;20389;-61
2021/01/31 01:49:24;;;;;;;2.10;1.45;;;22.80;33.30;;;;;;5053843;28;20904;-61
2021/01/31 01:51:56;;;;;;;2.15;1.40;;;22.80;33.30;;;;;;5065452;28;20396;-61
2021/01/31 01:54:28;;;;;;;1.70;1.30;;;22.80;33.30;;;;;;5039823;28;20540;-61
2021/01/31 01:56:59;;;;;;;2.20;1.45;;;22.80;33.90;;;;;;5073297;28;20404;-60
2021/01/31 01:59:26;;;;;;;1.58;1.20;;;22.80;33.20;;;;;;5073568;28;20853;-62
2021/01/31 02:02:17;;;;;;;1.80;1.30;;;22.80;33.20;;;;;;5069403;28;20761;-60
2021/01/31 02:04:43;;;;;;;2.15;1.50;;;22.80;33.60;;;;;;5050636;28;20769;-61
2021/01/31 02:07:09;;;;;;;2.28;1.30;;;22.70;33.20;;;;;;5033892;28;20400;-61
2021/01/31 02:09:36;;;;;;;2.88;1.40;;;22.70;33.40;;;;;;5052127;28;20393;-60
2021/01/31 02:12:05;;;;;;;1.90;1.58;;;22.70;33.40;;;;;;5051737;28;20393;-60
2021/01/31 02:14:33;;;;;;;1.80;1.42;;;22.70;33.30;;;;;;5052070;28;20389;-61
2021/01/31 02:17:10;;;;;;;1.77;1.27;;;22.70;33.30;;;;;;5052028;28;20435;-61
2021/01/31 02:20:14;;;;;;;2.03;1.58;;;22.70;33.50;;;;;;5048183;28;20428;-61
2021/01/31 02:22:58;;;;;;;1.80;1.35;;;22.70;33.60;;;;;;5038111;28;20489;-61
2021/01/31 02:25:45;;;;;;;1.73;1.40;;;22.70;33.90;;;;;;5051873;28;20401;-61
2021/01/31 02:28:22;;;;;;;1.77;1.30;;;22.70;33.80;;;;;;5049992;28;20393;-60
2021/01/31 02:30:48;;;;;;;2.50;1.40;;;22.70;33.80;;;;;;5050788;28;20792;-61
2021/01/31 02:33:53;;;;;;;1.90;1.40;;;22.70;33.80;;;;;;5052904;28;20409;-61
2021/01/31 02:36:40;;;;;;;1.92;1.33;;;22.70;33.80;;;;;;5052920;28;20389;-60
2021/01/31 02:39:17;;;;;;;2.17;1.30;;;22.60;33.90;;;;;;5052751;28;20562;-61
2021/01/31 02:42:18;;;;;;;2.08;1.40;;;22.60;33.90;;;;;;5052776;28;20400;-61
2021/01/31 02:45:09;;;;;;;1.90;1.30;;;22.60;33.90;;;;;;5033957;28;20397;-60
2021/01/31 02:47:41;;;;;;;2.20;1.50;;;22.50;33.90;;;;;;5024877;28;20403;-61
2021/01/31 02:50:16;;;;;;;2.30;1.50;;;22.50;33.80;;;;;;5032810;28;20394;-61
2021/01/31 02:52:48;;;;;;;1.98;1.40;;;22.50;33.80;;;;;;5032116;28;20868;-61
2021/01/31 02:55:21;;;;;;;2.35;1.38;;;22.50;33.80;;;;;;5041871;28;20412;-61
2021/01/31 02:58:01;;;;;;;2.00;1.40;;;22.50;33.80;;;;;;5053243;28;20425;-61
2021/01/31 03:00:38;;;;;;;3.85;1.80;;;22.50;33.70;;;;;;5067752;28;20405;-61
2021/01/31 03:03:13;;;;;;;1.73;1.30;;;22.50;33.70;;;;;;5034604;28;20411;-61
2021/01/31 03:05:43;;;;;;;2.05;1.45;;;22.50;33.70;;;;;;5052320;28;20872;-61
2021/01/31 03:08:26;;;;;;;1.95;1.38;;;22.50;33.70;;;;;;5034276;28;20406;-61
2021/01/31 03:11:03;;;;;;;2.70;1.40;;;22.50;33.70;;;;;;5051807;28;20400;-61
2021/01/31 03:13:47;;;;;;;2.08;1.40;;;22.50;33.70;;;;;;5051960;28;20409;-61
2021/01/31 03:16:18;;;;;;;1.67;1.33;;;22.50;33.60;;;;;;5052185;28;20416;-61
2021/01/31 03:18:53;;;;;;;1.95;1.45;;;22.50;33.60;;;;;;5047099;28;20982;-61
2021/01/31 03:21:25;;;;;;;2.05;1.40;;;22.50;33.60;;;;;;5072070;28;20471;-61
2021/01/31 03:24:12;;;;;;;2.05;1.50;;;22.50;33.50;;;;;;5053150;28;20406;-61
2021/01/31 03:27:01;;;;;;;1.75;1.40;;;22.50;33.50;;;;;;5051370;28;20861;-61
2021/01/31 03:29:27;;;;;;;2.40;1.67;;;22.50;33.40;;;;;;5043574;28;20407;-61
2021/01/31 03:32:02;;;;;;;1.75;1.38;;;22.50;33.40;;;;;;5051850;28;20389;-61
2021/01/31 03:34:38;;;;;;;1.80;1.40;;;22.40;33.40;;;;;;5051830;28;20381;-61
2021/01/31 03:37:05;;;;;;;2.05;1.52;;;22.40;33.40;;;;;;5034845;28;20393;-61
2021/01/31 03:39:32;;;;;;;2.05;1.50;;;22.40;33.30;;;;;;5051575;28;20413;-62
2021/01/31 03:41:58;;;;;;;1.67;1.40;;;22.50;33.20;;;;;;5051216;28;20731;-61
2021/01/31 03:44:24;;;;;;;2.07;1.40;;;22.50;33.20;;;;;;5051765;28;20392;-62
2021/01/31 03:46:58;;;;;;;2.22;1.50;;;22.50;33.10;;;;;;5051139;28;20386;-62
2021/01/31 03:49:27;;;;;;;2.00;1.40;;;22.50;33.10;;;;;;5031785;28;20403;-61
2021/01/31 03:51:54;;;;;;;2.03;1.53;;;22.50;33.10;;;;;;5031722;28;20933;-61
2021/01/31 03:54:20;;;;;;;2.00;1.58;;;22.50;33.10;;;;;;5031616;28;20384;-61
2021/01/31 03:56:56;;;;;;;2.20;1.50;;;22.50;33.00;;;;;;5030863;28;20438;-61
2021/01/31 03:59:40;;;;;;;1.90;1.33;;;22.50;33.00;;;;;;5031520;28;20470;-61
2021/01/31 04:02:09;;;;;;;2.22;1.60;;;22.50;33.00;;;;;;5031590;28;20383;-61
2021/01/31 04:05:02;;;;;;;2.00;1.55;;;22.50;33.00;;;;;;5031330;28;20918;-61
2021/01/31 04:07:33;;;;;;;2.00;1.60;;;22.50;33.00;;;;;;5032152;28;20890;-61
2021/01/31 04:10:01;;;;;;;1.90;1.48;;;22.40;32.90;;;;;;5051668;28;20388;-61
2021/01/31 04:12:31;;;;;;;2.28;1.63;;;22.40;32.90;;;;;;5051218;28;20474;-62
2021/01/31 04:15:04;;;;;;;1.70;1.50;;;22.40;32.80;;;;;;5051140;28;20873;-61
2021/01/31 04:17:30;;;;;;;1.90;1.52;;;22.40;32.80;;;;;;5056614;28;20403;-61
2021/01/31 04:19:56;;;;;;;1.92;1.60;;;22.40;32.80;;;;;;5055383;28;20889;-61
2021/01/31 04:22:21;;;;;;;2.13;1.70;;;22.40;32.80;;;;;;5051218;28;20398;-61
2021/01/31 04:24:47;;;;;;;2.00;1.70;;;22.40;32.80;;;;;;5050856;28;20484;-61
2021/01/31 04:27:14;;;;;;;2.13;1.67;;;22.40;32.90;;;;;;5051175;28;20400;-61
2021/01/31 04:29:40;;;;;;;2.60;1.55;;;22.40;32.80;;;;;;5051288;28;20456;-61
2021/01/31 04:32:05;;;;;;;1.90;1.50;;;22.40;32.80;;;;;;5051200;28;20942;-61
2021/01/31 04:34:32;;;;;;;1.80;1.50;;;22.30;32.80;;;;;;5051043;28;20381;-61
2021/01/31 04:36:57;;;;;;;1.98;1.55;;;22.30;32.80;;;;;;5050578;28;20412;-62
2021/01/31 04:39:24;;;;;;;2.30;1.50;;;22.40;32.80;;;;;;5050997;28;20413;-62
2021/01/31 04:41:50;;;;;;;1.73;1.50;;;22.30;32.80;;;;;;5050967;28;20386;-60
2021/01/31 04:44:19;;;;;;;2.10;1.52;;;22.30;32.80;;;;;;5051103;28;20397;-61
2021/01/31 04:46:49;;;;;;;2.28;1.63;;;22.30;32.80;;;;;;5050511;28;20378;-61
2021/01/31 04:49:45;;;;;;;2.00;1.60;;;22.30;32.80;;;;;;5060236;28;20931;-61
2021/01/31 04:52:42;;;;;;;1.63;1.40;;;22.30;32.70;;;;;;5071168;28;20400;-61
2021/01/31 04:55:35;;;;;;;2.20;1.60;;;22.30;32.70;;;;;;5070968;28;20755;-61
2021/01/31 04:58:13;;;;;;;1.85;1.58;;;22.30;32.70;;;;;;5070643;28;20406;-61
2021/01/31 05:01:05;;;;;;;2.05;1.60;;;22.30;32.70;;;;;;5070414;28;20380;-62
2021/01/31 05:03:33;;;;;;;2.55;1.65;;;22.30;32.70;;;;;;5053699;28;20429;-61
2021/01/31 05:06:13;;;;;;;2.10;1.80;;;22.20;32.60;;;;;;5050902;28;20389;-61
2021/01/31 05:08:39;;;;;;;2.00;1.60;;;22.20;32.60;;;;;;5032307;28;20462;-61
2021/01/31 05:11:14;;;;;;;2.22;1.75;;;22.20;32.60;;;;;;5032887;28;20947;-61
2021/01/31 05:13:53;;;;;;;2.17;1.90;;;22.20;32.60;;;;;;5050699;28;20469;-61
2021/01/31 05:16:20;;;;;;;2.20;1.85;;;22.20;32.60;;;;;;5050751;28;20377;-61
2021/01/31 05:18:50;;;;;;;2.20;1.80;;;22.20;32.60;;;;;;5069929;28;20423;-61
2021/01/31 05:21:20;;;;;;;2.00;1.80;;;22.20;32.60;;;;;;5074414;28;20411;-61
2021/01/31 05:23:57;;;;;;;2.40;1.88;;;22.20;32.60;;;;;;5073891;28;20416;-61
2021/01/31 05:26:23;;;;;;;2.20;1.80;;;22.20;32.60;;;;;;5034324;28;20963;-61
2021/01/31 05:29:02;;;;;;;2.40;2.10;;;22.20;32.60;;;;;;5033805;28;20482;-61
2021/01/31 05:31:31;;;;;;;2.58;2.13;;;22.20;32.50;;;;;;5050387;28;20423;-61
2021/01/31 05:33:59;;;;;;;2.08;1.80;;;22.20;32.50;;;;;;5053882;28;20746;-60
2021/01/31 05:36:28;;;;;;;2.23;1.97;;;22.20;32.50;;;;;;5054033;28;20877;-61
2021/01/31 05:38:54;;;;;;;2.50;2.00;;;22.20;32.50;;;;;;5053494;28;20413;-61
2021/01/31 05:41:41;;;;;;;2.40;1.90;;;22.20;32.50;;;;;;5054010;28;20396;-61
2021/01/31 05:44:14;;;;;;;2.28;1.90;;;22.20;32.50;;;;;;5053573;28;20473;-61
2021/01/31 05:46:43;;;;;;;2.77;2.03;;;22.20;32.40;;;;;;5054402;28;20447;-59
2021/01/31 05:49:12;;;;;;;2.63;2.13;;;22.20;32.40;;;;;;5073892;28;20388;-61
2021/01/31 05:51:44;;;;;;;2.80;2.30;;;22.20;32.40;;;;;;5072058;28;20395;-61
2021/01/31 05:54:24;;;;;;;2.45;2.17;;;22.20;32.40;;;;;;5053745;28;20472;-60
2021/01/31 05:56:50;;;;;;;2.58;2.20;;;22.20;32.40;;;;;;5053093;28;20441;-61
2021/01/31 05:59:16;;;;;;;2.63;2.20;;;22.20;32.40;;;;;;5053373;28;20921;-62
2021/01/31 06:02:02;;;;;;;2.63;2.20;;;22.10;32.40;;;;;;5053669;28;20388;-61
2021/01/31 06:04:28;;;;;;;2.83;2.50;;;22.10;32.40;;;;;;5053541;28;20887;-61
2021/01/31 06:07:12;;;;;;;2.60;2.30;;;22.10;32.40;;;;;;5052984;28;20478;-61
2021/01/31 06:09:42;;;;;;;3.00;2.60;;;22.10;32.40;;;;;;5035639;28;20759;-61
2021/01/31 06:12:09;;;;;;;2.88;2.50;;;22.10;32.40;;;;;;5053131;28;20410;-61
2021/01/31 06:14:40;;;;;;;3.05;2.50;;;22.10;32.50;;;;;;5055594;28;20919;-61
2021/01/31 06:17:25;;;;;;;3.15;2.50;;;22.10;32.40;;;;;;5073233;28;20415;-61
2021/01/31 06:20:00;;;;;;;3.13;2.72;;;22.10;32.40;;;;;;5063187;28;20766;-62
2021/01/31 06:22:50;;;;;;;3.13;2.50;;;22.10;32.40;;;;;;5035231;28;20397;-61
2021/01/31 06:25:27;;;;;;;3.15;2.65;;;22.10;32.30;;;;;;5053180;28;20436;-61
2021/01/31 06:28:15;;;;;;;2.80;2.55;;;22.00;32.40;;;;;;5052996;28;20398;-62
2021/01/31 06:30:45;;;;;;;3.10;2.70;;;22.00;32.30;;;;;;5051887;28;20849;-61
2021/01/31 06:33:11;;;;;;;2.95;2.65;;;22.00;32.30;;;;;;5053108;28;20392;-61
2021/01/31 06:35:37;;;;;;;3.30;2.90;;;22.00;32.30;;;;;;5065632;28;20792;-61
2021/01/31 06:38:05;;;;;;;2.70;2.40;;;22.00;32.30;;;;;;5072855;28;20891;-61
2021/01/31 06:40:58;;;;;;;2.92;2.63;;;22.00;32.30;;;;;;5068456;28;20393;-61
2021/01/31 06:43:33;;;;;;;2.50;2.30;;;22.00;32.30;;;;;;5052751;28;20749;-61
2021/01/31 06:46:01;;;;;;;3.22;2.67;;;22.00;32.30;;;;;;5052740;28;20389;-61
2021/01/31 06:49:01;;;;;;;3.05;2.60;;;22.00;32.30;;;;;;5068608;28;20404;-61
2021/01/31 06:51:35;;;;;;;3.00;2.70;;;22.00;32.30;;;;;;5061080;28;20408;-61
2021/01/31 06:54:41;;;;;;;2.67;2.38;;;22.00;32.30;;;;;;5052761;28;20386;-61
2021/01/31 06:57:44;;;;;;;2.80;2.40;;;22.00;32.30;;;;;;5052277;28;20417;-61
2021/01/31 07:00:37;;;;;;;3.10;2.78;;;22.00;32.20;;;;;;5052018;28;20417;-61
2021/01/31 07:03:35;;;;;;;3.20;2.72;;;22.00;32.80;;;;;;5060518;28;20466;-61
2021/01/31 07:06:12;;;;;;;3.17;2.78;;;22.00;32.10;;;;;;5052432;28;20397;-61
2021/01/31 07:09:24;;;;;;;2.97;2.50;;;22.00;32.10;;;;;;5052237;28;20447;-61
2021/01/31 07:12:11;;;;;;;2.95;2.40;;;22.00;32.00;;;;;;5051838;28;20394;-61
2021/01/31 07:14:43;;;;;;;2.90;2.50;;;22.00;32.00;;;;;;5040038;28;20480;-61
2021/01/31 07:17:30;;;;;;;3.65;2.80;;;22.00;32.00;;;;;;5052086;28;20476;-61
2021/01/31 07:20:10;;;;;;;3.17;2.88;;;22.00;32.00;;;;;;5052164;28;20522;-60
2021/01/31 07:22:47;;;;;;;3.37;2.90;;;22.00;32.00;;;;;;5051654;28;20444;-61
2021/01/31 07:25:23;;;;;;;3.55;2.95;;;22.00;32.00;;;;;;5052006;28;20389;-61
2021/01/31 07:28:22;;;;;;;4.20;3.03;;;21.90;32.00;;;;;;5051904;28;20381;-60
2021/01/31 07:31:08;;;;;;;3.88;3.38;;;22.00;32.00;;;;;;5051096;28;20401;-61
2021/01/31 07:33:48;;;;;;;3.85;3.17;;;21.90;32.00;;;;;;5051516;28;20465;-63
2021/01/31 07:36:16;;;;;;;3.80;3.28;;;21.90;32.00;;;;;;5059194;28;20397;-61
2021/01/31 07:38:52;;;;;;;4.30;3.47;;;21.90;32.00;;;;;;5031149;28;20413;-61
2021/01/31 07:41:18;;;;;;;3.78;3.33;;;21.90;32.10;;;;;;4988323;28;20911;-61
2021/01/31 07:43:46;;;;;;;4.15;3.75;;;21.80;32.30;;;;;;5033486;28;20393;-61
2021/01/31 07:46:16;;;;;;;4.25;3.50;;;21.80;31.90;;;;;;5031752;28;20426;-60
2021/01/31 07:48:45;;;;;;;5.20;3.90;;;21.70;31.80;;;;;;5040474;28;20440;-65
2021/01/31 07:51:19;;;;;;;4.93;3.78;;;21.60;31.90;;;;;;5033515;28;20459;-61
2021/01/31 07:53:45;;;;;;;5.75;3.97;;;21.60;32.40;;;;;;5033633;28;20429;-61
2021/01/31 07:56:26;;;;;;;3.97;3.58;;;21.60;32.70;;;;;;5051316;28;20425;-61
2021/01/31 07:58:53;;;;;;;4.00;3.60;;;21.60;32.50;;;;;;5050866;28;20456;-61
2021/01/31 08:01:39;;;;;;;5.75;3.70;;;21.50;32.60;;;;;;5063202;28;21343;-61
2021/01/31 08:04:34;;;;;;;4.47;3.58;;;21.50;33.00;;;;;;5033191;28;20389;-61
2021/01/31 08:07:03;;;;;;;4.20;3.80;;;21.50;33.00;;;;;;5050678;28;20951;-61
2021/01/31 08:09:28;;;;;;;4.35;3.55;;;21.50;32.80;;;;;;5051224;28;20468;-61
2021/01/31 08:11:54;;;;;;;5.13;3.80;;;21.50;32.90;;;;;;5051610;28;20477;-62
2021/01/31 08:14:57;;;;;;;6.03;3.60;;;21.50;32.90;;;;;;5051717;28;20393;-62
2021/01/31 08:17:41;;;;;;;7.40;3.70;;;21.50;33.10;;;;;;5051370;28;20413;-61
2021/01/31 08:20:28;;;;;;;5.60;3.60;;;21.40;33.70;;;;;;5067179;28;20423;-60
2021/01/31 08:22:58;;;;;;;6.15;4.03;;;21.50;33.80;;;;;;5051072;28;20392;-62
2021/01/31 08:25:52;;;;;;;6.10;3.70;;;21.50;33.90;;;;;;5050819;28;20488;-64
2021/01/31 08:28:23;;;;;;;5.53;3.60;;;21.50;33.60;;;;;;5031314;28;20399;-61
2021/01/31 08:31:15;;;;;;;6.40;3.65;;;21.60;34.10;;;;;;5036410;28;20869;-64
2021/01/31 08:33:42;;;;;;;7.53;4.18;;;21.60;33.90;;;;;;5034516;28;20417;-66
2021/01/31 08:36:20;;;;;;;6.00;4.10;;;21.50;33.90;;;;;;5051783;28;20381;-62
2021/01/31 08:38:52;;;;;;;5.18;4.30;;;21.60;34.20;;;;;;5047826;28;20465;-61
2021/01/31 08:41:30;;;;;;;7.30;4.60;;;21.60;33.80;;;;;;5031825;28;20391;-61
2021/01/31 08:44:18;;;;;;;7.97;5.03;;;21.50;34.00;;;;;;5031299;28;20422;-62
2021/01/31 08:47:03;;;;;;;10.13;5.75;;;21.50;34.10;;;;;;5038438;28;20401;-64
2021/01/31 08:49:29;;;;;;;9.05;5.78;;;21.60;34.00;;;;;;5051869;28;20429;-62
2021/01/31 08:52:01;;;;;;;11.65;6.00;;;21.50;35.40;;;;;;5052921;28;20423;-62
2021/01/31 08:54:27;;;;;;;11.10;6.32;;;21.60;35.60;;;;;;5055089;28;20508;-62
2021/01/31 08:57:01;;;;;;;10.95;6.68;;;21.60;35.50;;;;;;5053018;28;20572;-62
2021/01/31 08:59:37;;;;;;;13.05;6.90;;;21.70;35.80;;;;;;5054508;28;20507;-62
2021/01/31 09:02:17;;;;;;;12.65;7.03;;;21.80;35.60;;;;;;5036545;28;20410;-62
2021/01/31 09:05:14;;;;;;;12.48;7.28;;;21.80;35.00;;;;;;5070826;28;20510;-62
2021/01/31 09:07:49;;;;;;;12.35;7.07;;;21.80;35.00;;;;;;5054469;28;20391;-62
2021/01/31 09:10:26;;;;;;;14.50;7.07;;;21.90;35.20;;;;;;5063293;28;20454;-61
2021/01/31 09:13:10;;;;;;;14.63;7.07;;;21.90;35.50;;;;;;5054040;28;20424;-62
2021/01/31 09:15:37;;;;;;;14.20;7.10;;;21.90;34.90;;;;;;5054152;28;20424;-62
2021/01/31 09:18:16;;;;;;;14.45;7.30;;;21.90;34.30;;;;;;5054370;28;20395;-62
2021/01/31 09:20:42;;;;;;;17.05;7.50;;;21.80;33.90;;;;;;5054243;28;20773;-61
2021/01/31 09:23:15;;;;;;;12.77;7.22;;;21.80;33.60;;;;;;5053940;28;20393;-70
2021/01/31 09:25:42;;;;;;;15.95;7.95;;;21.80;33.30;;;;;;5054401;28;20468;-65
2021/01/31 09:28:23;;;;;;;13.93;6.95;;;21.80;33.10;;;;;;5054077;28;20606;-66
2021/01/31 09:30:53;;;;;;;12.23;7.32;;;21.80;32.90;;;;;;5054008;28;20393;-62
2021/01/31 09:33:26;;;;;;;13.75;6.95;;;21.80;32.60;;;;;;5059431;28;20400;-61
2021/01/31 09:35:52;;;;;;;13.10;7.25;;;21.80;32.40;;;;;;5074190;28;20391;-61
2021/01/31 09:38:24;;;;;;;12.50;7.28;;;21.80;32.30;;;;;;5073879;28;20392;-61
2021/01/31 09:40:53;;;;;;;12.20;6.63;;;21.80;32.20;;;;;;5073863;28;20406;-62
2021/01/31 09:43:37;;;;;;;11.23;6.65;;;21.80;32.00;;;;;;5074024;28;20384;-62
2021/01/31 09:46:09;;;;;;;10.77;6.32;;;21.80;32.00;;;;;;5074044;28;20379;-62
2021/01/31 09:48:35;;;;;;;10.33;6.23;;;21.80;31.90;;;;;;5073939;28;20391;-62
2021/01/31 09:51:07;;;;;;;11.45;6.90;;;21.80;31.90;;;;;;5073295;28;20383;-62
2021/01/31 09:53:40;;;;;;;10.50;6.70;;;21.80;31.80;;;;;;5066080;28;20442;-61
2021/01/31 09:56:29;;;;;;;9.48;6.13;;;21.80;31.70;;;;;;5048769;28;20401;-61
2021/01/31 09:58:55;;;;;;;9.70;6.57;;;21.80;31.70;;;;;;5050713;28;20425;-62
2021/01/31 10:01:24;;;;;;;9.40;6.35;;;21.80;31.70;;;;;;5052573;28;20409;-62
2021/01/31 10:04:06;;;;;;;9.90;6.00;;;21.80;31.70;;;;;;5060475;28;20395;-62
2021/01/31 10:06:43;;;;;;;8.73;5.68;;;21.80;31.60;;;;;;5073445;28;20392;-62
2021/01/31 10:09:09;;;;;;;9.35;6.07;;;21.80;31.60;;;;;;5072953;28;20384;-62
2021/01/31 10:11:38;;;;;;;8.70;5.88;;;21.80;31.50;;;;;;5065249;28;20405;-62
2021/01/31 10:14:05;;;;;;;9.00;5.90;;;21.80;31.50;;;;;;5053623;28;20429;-62
2021/01/31 10:16:33;;;;;;;8.05;5.85;;;21.80;31.50;;;;;;5053292;28;20484;-62
2021/01/31 10:19:23;;;;;;;7.97;5.50;;;21.80;31.40;;;;;;5052575;28;20827;-62
2021/01/31 10:21:54;;;;;;;8.50;5.80;;;21.80;31.40;;;;;;5053202;28;20469;-61
2021/01/31 10:24:31;;;;;;;7.03;5.18;;;21.80;31.40;;;;;;5052999;28;20390;-61
2021/01/31 10:27:11;;;;;;;7.30;5.40;;;21.80;31.40;;;;;;5034750;28;20416;-62
2021/01/31 10:29:37;;;;;;;7.90;5.43;;;21.80;31.40;;;;;;5052945;28;20887;-62
2021/01/31 10:32:18;;;;;;;7.43;5.40;;;21.80;31.30;;;;;;5052979;28;20485;-62
2021/01/31 10:34:44;;;;;;;8.02;5.57;;;21.80;31.30;;;;;;5052764;28;20407;-62
2021/01/31 10:37:34;;;;;;;7.18;5.22;;;21.80;31.30;;;;;;5034648;28;20405;-61
2021/01/31 10:39:59;;;;;;;7.40;5.30;;;21.80;31.30;;;;;;5052811;28;20410;-62
2021/01/31 10:42:25;;;;;;;6.75;5.15;;;21.70;31.20;;;;;;5034769;28;20451;-63
2021/01/31 10:44:51;;;;;;;6.47;4.80;;;21.70;31.20;;;;;;5072002;28;20891;-63
2021/01/31 10:47:16;;;;;;;7.38;5.40;;;21.70;31.10;;;;;;5072552;28;20475;-62
2021/01/31 10:49:42;;;;;;;6.80;5.10;;;21.70;31.20;;;;;;5071937;28;20756;-62
2021/01/31 10:52:10;;;;;;;6.20;4.93;;;21.70;31.10;;;;;;5052687;28;20397;-62
2021/01/31 10:54:36;;;;;;;6.97;4.82;;;21.70;31.10;;;;;;5052699;28;20393;-62
2021/01/31 10:57:01;;;;;;;5.90;4.72;;;21.70;31.10;;;;;;5051901;28;20444;-62
2021/01/31 10:59:27;;;;;;;6.88;5.30;;;21.70;31.10;;;;;;5052362;28;20452;-62
2021/01/31 11:01:53;;;;;;;6.80;5.03;;;21.70;31.10;;;;;;5050558;28;20401;-62
2021/01/31 11:04:19;;;;;;;6.80;5.13;;;21.70;31.10;;;;;;5052410;28;20393;-62
2021/01/31 11:06:46;;;;;;;6.20;4.85;;;21.70;31.10;;;;;;5052426;28;20382;-62
2021/01/31 11:09:14;;;;;;;7.05;5.00;;;21.60;31.20;;;;;;5051863;28;20397;-62
2021/01/31 11:11:40;;;;;;;6.15;4.85;;;21.60;31.20;;;;;;5052137;28;20397;-62
2021/01/31 11:14:06;;;;;;;6.70;4.90;;;21.60;31.70;;;;;;5053070;28;20488;-62
2021/01/31 11:16:32;;;;;;;6.53;5.18;;;21.50;31.70;;;;;;5051184;28;20392;-62
2021/01/31 11:18:57;;;;;;;6.78;4.93;;;21.50;33.20;;;;;;5051379;28;20765;-63
2021/01/31 11:21:25;;;;;;;9.18;5.05;;;21.50;33.50;;;;;;5052004;28;20393;-61
2021/01/31 11:23:53;;;;;;;9.43;5.25;;;21.60;36.10;;;;;;5052496;28;20398;-63
2021/01/31 11:26:18;;;;;;;7.57;4.75;;;21.70;36.20;;;;;;5051893;28;20386;-62
2021/01/31 11:28:44;;;;;;;7.83;4.87;;;21.70;35.30;;;;;;5034137;28;20463;-61
2021/01/31 11:31:10;;;;;;;8.82;4.68;;;21.80;34.10;;;;;;5033617;28;20417;-63
2021/01/31 11:33:37;;;;;;;8.07;4.80;;;21.80;33.90;;;;;;5051742;28;20393;-62
2021/01/31 11:36:03;;;;;;;9.00;4.38;;;21.90;35.00;;;;;;5051835;28;20378;-62
2021/01/31 11:38:30;;;;;;;7.95;4.40;;;21.90;35.30;;;;;;5051604;28;20413;-61
2021/01/31 11:40:55;;;;;;;7.00;4.70;;;21.90;35.50;;;;;;5051376;28;20739;-62
2021/01/31 11:43:21;;;;;;;6.25;4.50;;;21.90;35.00;;;;;;5051142;28;20451;-61
2021/01/31 11:45:47;;;;;;;7.15;4.43;;;21.90;34.40;;;;;;5053131;28;20405;-61
2021/01/31 11:48:13;;;;;;;7.00;4.32;;;21.90;34.10;;;;;;5053225;28;20395;-61
2021/01/31 11:50:39;;;;;;;11.03;4.67;;;21.90;33.90;;;;;;5045456;28;20441;-61
2021/01/31 11:53:05;;;;;;;7.40;4.50;;;21.90;34.50;;;;;;5031138;28;20492;-61
2021/01/31 11:55:31;;;;;;;6.68;4.30;;;21.90;34.70;;;;;;5048391;28;20945;-62
2021/01/31 11:57:56;;;;;;;5.85;4.22;;;21.90;34.60;;;;;;5050840;28;20413;-61
2021/01/31 12:00:22;;;;;;;9.60;4.60;;;21.90;33.70;;;;;;5051432;28;20421;-60
2021/01/31 12:02:48;;;;;;;9.70;4.30;;;21.90;34.30;;;;;;5050450;28;20429;-60
2021/01/31 12:05:17;;;;;;;8.77;4.43;;;22.00;34.50;;;;;;5050756;28;20422;-61
2021/01/31 12:07:43;;;;;;;7.45;4.05;;;22.10;34.30;;;;;;5051128;28;20400;-60
2021/01/31 12:10:11;;;;;;;7.47;4.00;;;22.20;34.20;;;;;;5050861;28;20749;-60
2021/01/31 12:12:37;;;;;;;6.88;4.20;;;22.20;34.50;;;;;;5054459;28;20453;-60
2021/01/31 12:15:05;;;;;;;7.95;4.22;;;22.20;34.60;;;;;;5050386;28;20765;-61
2021/01/31 12:17:31;;;;;;;9.27;4.28;;;22.20;34.60;;;;;;5051267;28;20381;-60
2021/01/31 12:19:56;;;;;;;9.43;4.20;;;22.20;34.20;;;;;;5051179;28;20409;-61
2021/01/31 12:22:23;;;;;;;9.80;4.33;;;22.30;34.80;;;;;;5051226;28;20389;-60
2021/01/31 12:24:52;;;;;;;6.90;4.00;;;22.30;34.40;;;;;;5051022;28;20741;-60
2021/01/31 12:27:24;;;;;;;8.43;4.30;;;22.30;34.30;;;;;;5052365;28;20517;-61
2021/01/31 12:29:50;;;;;;;8.35;4.13;;;22.20;34.10;;;;;;5055020;28;20888;-60
2021/01/31 12:32:16;;;;;;;6.10;4.03;;;22.30;34.30;;;;;;5055299;28;20393;-60
2021/01/31 12:34:42;;;;;;;16.83;4.55;;;22.30;34.10;;;;;;5058209;28;20758;-60
2021/01/31 12:37:07;;;;;;;12.13;4.30;;;22.20;33.70;;;;;;5055001;28;20389;-62
2021/01/31 12:39:33;;;;;;;11.80;3.97;;;22.20;34.10;;;;;;5054707;28;20421;-63
2021/01/31 12:41:58;;;;;;;10.82;4.45;;;22.20;34.00;;;;;;5053935;28;20408;-62
2021/01/31 12:44:24;;;;;;;11.07;4.70;;;22.20;33.70;;;;;;5064910;28;20397;-62
2021/01/31 12:46:50;;;;;;;11.25;4.13;;;22.20;34.30;;;;;;5054588;28;20397;-61
2021/01/31 12:49:15;;;;;;;10.15;4.10;;;22.10;34.20;;;;;;5054513;28;20386;-62
2021/01/31 12:51:41;;;;;;;8.50;3.87;;;22.10;34.30;;;;;;5036983;28;20400;-67
2021/01/31 12:54:07;;;;;;;8.00;4.25;;;22.10;34.20;;;;;;5054913;28;20421;-65
2021/01/31 12:56:32;;;;;;;11.47;4.00;;;22.10;33.80;;;;;;5054461;28;20731;-61
2021/01/31 12:58:58;;;;;;;8.90;4.38;;;22.10;33.70;;;;;;5052966;28;20408;-62
2021/01/31 13:01:24;;;;;;;6.47;4.20;;;22.10;33.40;;;;;;5054403;28;20397;-61
2021/01/31 13:03:50;;;;;;;5.88;4.00;;;22.00;33.20;;;;;;5045199;28;20405;-61
2021/01/31 13:06:15;;;;;;;8.02;4.28;;;22.00;33.10;;;;;;5047055;28;20415;-63
2021/01/31 13:08:41;;;;;;;6.85;4.00;;;22.00;33.10;;;;;;5047535;28;20408;-62
2021/01/31 13:11:07;;;;;;;9.63;4.30;;;22.00;33.00;;;;;;5050056;28;20401;-63
2021/01/31 13:13:32;;;;;;;7.03;4.25;;;22.00;33.00;;;;;;5051213;28;20397;-62